createdAt,value
2023-02-14T00:02:22.112Z,103668.22
2023-02-14T00:04:48.593Z,103663.06
2023-02-14T00:07:15.221Z,103664.72
2023-02-14T00:09:41.729Z,103662.09
2023-02-14T00:12:08.149Z,103665.50
2023-02-14T00:14:53.470Z,103657.75
2023-02-14T00:17:19.913Z,103656.81
2023-02-14T00:19:46.420Z,103656.78
2023-02-14T00:22:13.068Z,103656.72
2023-02-14T00:24:39.528Z,103657.47
2023-02-14T00:27:06.076Z,103655.63
2023-02-14T00:29:33.678Z,103658.19
2023-02-14T00:32:01.040Z,103653.84
2023-02-14T00:34:28.134Z,103650.31
2023-02-14T00:36:54.711Z,103649.44
2023-02-14T00:39:21.187Z,103654.53
2023-02-14T00:41:47.869Z,103649.38
2023-02-14T00:44:14.553Z,103651.88
2023-02-14T00:46:41.576Z,103646.72
2023-02-14T00:49:08.297Z,103644.06
2023-02-14T00:51:35.102Z,103646.59
2023-02-14T00:54:01.926Z,103650.84
2023-02-14T00:56:28.395Z,103652.50
2023-02-14T00:58:55.080Z,103639.56
2023-02-14T01:01:21.619Z,103642.06
2023-02-14T01:03:48.183Z,103646.31
2023-02-14T01:06:15.129Z,103640.25
2023-02-14T01:08:41.793Z,103637.59
2023-02-14T01:11:09.125Z,103642.66
2023-02-14T01:13:35.586Z,103626.28
2023-02-14T01:16:07.540Z,103634.00
2023-02-14T01:18:35.162Z,103637.44
2023-02-14T01:21:13.896Z,103632.25
2023-02-14T01:23:41.142Z,103624.53
2023-02-14T01:26:08.401Z,103637.38
2023-02-14T01:28:34.974Z,103627.03
2023-02-14T01:31:07.837Z,103623.56
2023-02-14T01:33:34.391Z,103625.97
2023-02-14T01:36:00.976Z,103625.91
2023-02-14T01:38:27.392Z,103627.50
2023-02-14T01:40:53.820Z,103630.91
2023-02-14T01:43:20.278Z,103630.81
2023-02-14T01:45:46.961Z,103635.84
2023-02-14T01:48:15.277Z,103633.13
2023-02-14T01:50:45.452Z,103629.63
2023-02-14T01:53:24.682Z,103631.31
2023-02-14T01:55:57.043Z,103627.81
2023-02-14T01:58:27.866Z,103634.66
2023-02-14T02:00:57.051Z,103632.94
2023-02-14T02:03:36.569Z,103626.06
2023-02-14T02:06:28.009Z,103625.22
2023-02-14T02:08:59.420Z,103625.16
2023-02-14T02:11:26.910Z,103627.75
2023-02-14T02:13:53.658Z,103621.75
2023-02-14T02:16:50.192Z,103634.50
2023-02-14T02:19:35.169Z,103631.06
2023-02-14T02:22:31.036Z,103629.34
2023-02-14T02:25:10.419Z,103628.44
2023-02-14T02:27:52.082Z,103630.13
2023-02-14T02:30:30.772Z,103632.69
2023-02-14T02:33:09.077Z,103625.69
2023-02-14T02:35:57.505Z,103624.72
2023-02-14T02:38:33.018Z,103626.34
2023-02-14T02:41:21.848Z,103623.59
2023-02-14T02:44:03.783Z,103618.47
2023-02-14T02:46:48.172Z,103623.59
2023-02-14T02:49:46.919Z,103614.97
2023-02-14T02:52:42.474Z,103616.72
2023-02-14T02:55:24.322Z,103615.78
2023-02-14T02:57:53.479Z,103614.00
2023-02-14T03:00:22.160Z,103612.28
2023-02-14T03:03:11.558Z,103608.84
2023-02-14T03:05:38.444Z,103612.19
2023-02-14T03:08:05.730Z,103611.25
2023-02-14T03:10:36.622Z,103608.50
2023-02-14T03:13:12.299Z,103602.41
2023-02-14T03:15:44.132Z,103601.56
2023-02-14T03:18:47.674Z,103599.06
2023-02-14T03:21:20.194Z,103601.72
2023-02-14T03:23:59.499Z,103594.97
2023-02-14T03:26:33.745Z,103604.41
2023-02-14T03:29:06.266Z,103593.19
2023-02-14T03:31:58.700Z,103597.41
2023-02-14T03:34:40.590Z,103599.16
2023-02-14T03:37:34.662Z,103600.88
2023-02-14T03:40:13.390Z,103594.91
2023-02-14T03:42:49.904Z,103600.03
2023-02-14T03:45:27.765Z,103594.78
2023-02-14T03:48:00.423Z,103592.22
2023-02-14T03:50:28.867Z,103593.84
2023-02-14T03:52:56.956Z,103593.75
2023-02-14T03:55:34.602Z,103595.34
2023-02-14T03:58:12.333Z,103586.63
2023-02-14T04:00:41.841Z,103591.75
2023-02-14T04:03:14.988Z,103596.88
2023-02-14T04:05:43.854Z,103597.69
2023-02-14T04:08:12.011Z,103589.13
2023-02-14T04:10:40.074Z,103590.81
2023-02-14T04:13:06.570Z,103590.81
2023-02-14T04:15:33.051Z,103595.91
2023-02-14T04:18:18.089Z,103594.13
2023-02-14T04:20:44.549Z,103596.56
2023-02-14T04:23:11.080Z,103600.88
2023-02-14T04:25:40.005Z,103593.97
2023-02-14T04:28:06.444Z,103595.56
2023-02-14T04:30:32.926Z,103597.19
2023-02-14T04:32:59.309Z,103596.31
2023-02-14T04:35:25.756Z,103600.31
2023-02-14T04:37:52.780Z,103596.00
2023-02-14T04:40:19.346Z,103599.47
2023-02-14T04:42:46.349Z,103598.56
2023-02-14T04:45:13.193Z,103595.19
2023-02-14T04:47:39.649Z,103592.56
2023-02-14T04:50:06.743Z,103586.53
2023-02-14T04:52:33.224Z,103590.84
2023-02-14T04:54:59.796Z,103590.84
2023-02-14T04:57:26.249Z,103589.97
2023-02-14T04:59:52.698Z,103584.00
2023-02-14T05:02:19.168Z,103583.03
2023-02-14T05:04:45.653Z,103580.34
2023-02-14T05:07:12.105Z,103584.56
2023-02-14T05:09:38.572Z,103579.41
2023-02-14T05:12:05.177Z,103580.16
2023-02-14T05:14:31.690Z,103582.72
2023-02-14T05:16:58.189Z,103580.09
2023-02-14T05:19:25.107Z,103577.50
2023-02-14T05:21:51.645Z,103576.56
2023-02-14T05:24:18.138Z,103573.03
2023-02-14T05:26:44.541Z,103573.88
2023-02-14T05:29:11.047Z,103572.09
2023-02-14T05:31:37.673Z,103579.78
2023-02-14T05:34:04.224Z,103580.63
2023-02-14T05:36:30.853Z,103579.59
2023-02-14T05:38:57.275Z,103579.47
2023-02-14T05:41:23.670Z,103570.84
2023-02-14T05:43:50.125Z,103566.53
2023-02-14T05:46:16.577Z,103570.75
2023-02-14T05:48:43.049Z,103569.09
2023-02-14T05:51:10.670Z,103573.31
2023-02-14T05:53:37.492Z,103572.44
2023-02-14T05:56:04.776Z,103574.16
2023-02-14T05:58:32.226Z,103579.28
2023-02-14T06:01:00.287Z,103582.69
2023-02-14T06:03:27.580Z,103582.63
2023-02-14T06:05:53.979Z,103573.19
2023-02-14T06:08:20.450Z,103572.31
2023-02-14T06:10:47.106Z,103568.03
2023-02-14T06:13:13.627Z,103575.66
2023-02-14T06:15:40.044Z,103569.66
2023-02-14T06:18:06.899Z,103573.97
2023-02-14T06:20:33.376Z,103577.34
2023-02-14T06:22:59.836Z,103578.22
2023-02-14T06:25:27.214Z,103589.34
2023-02-14T06:27:57.675Z,103586.69
2023-02-14T06:30:24.517Z,103582.34
2023-02-14T06:32:51.760Z,103584.81
2023-02-14T06:35:18.443Z,103583.06
2023-02-14T06:37:45.386Z,103585.59
2023-02-14T06:40:13.265Z,103589.03
2023-02-14T06:42:40.074Z,103580.38
2023-02-14T06:45:06.998Z,103585.50
2023-02-14T06:47:34.952Z,103588.03
2023-02-14T06:50:01.700Z,103581.97
2023-02-14T06:52:28.115Z,103581.03
2023-02-14T06:54:54.547Z,103591.25
2023-02-14T06:57:20.951Z,103587.91
2023-02-14T06:59:47.404Z,103582.78
2023-02-14T07:02:13.976Z,103584.50
2023-02-14T07:04:40.436Z,103593.06
2023-02-14T07:07:07.038Z,103585.34
2023-02-14T07:09:33.492Z,103580.25
2023-02-14T07:12:00.003Z,103582.00
2023-02-14T07:14:26.569Z,103580.34
2023-02-14T07:16:53.020Z,103573.53
2023-02-14T07:19:19.414Z,103578.66
2023-02-14T07:21:45.819Z,103582.19
2023-02-14T07:24:12.272Z,103585.72
2023-02-14T07:26:38.670Z,103588.28
2023-02-14T07:29:05.238Z,103587.59
2023-02-14T07:31:31.864Z,103589.34
2023-02-14T07:34:00.789Z,103586.88
2023-02-14T07:36:27.731Z,103587.84
2023-02-14T07:38:56.470Z,103584.50
2023-02-14T07:41:23.497Z,103584.56
2023-02-14T07:43:49.946Z,103589.72
2023-02-14T07:46:17.544Z,103590.66
2023-02-14T07:48:44.206Z,103598.38
2023-02-14T07:51:11.229Z,103601.88
2023-02-14T07:53:37.776Z,103599.41
2023-02-14T07:56:04.329Z,103603.66
2023-02-14T07:58:30.781Z,103597.72
2023-02-14T08:00:57.430Z,103590.91
2023-02-14T08:03:24.163Z,103592.72
2023-02-14T08:06:00.012Z,103589.38
2023-02-14T08:08:28.794Z,103589.38
2023-02-14T08:10:55.802Z,103588.63
2023-02-14T08:13:22.642Z,103583.59
2023-02-14T08:16:04.418Z,103594.81
2023-02-14T08:18:35.048Z,103593.28
2023-02-14T08:21:01.858Z,103590.84
2023-02-14T08:23:28.753Z,103591.91
2023-02-14T08:25:55.512Z,103589.50
2023-02-14T08:28:22.143Z,103588.81
2023-02-14T08:30:50.059Z,103595.88
2023-02-14T08:33:16.689Z,103588.38
2023-02-14T08:35:43.227Z,103586.84
2023-02-14T08:38:09.866Z,103590.44
2023-02-14T08:40:37.239Z,103595.81
2023-02-14T08:43:08.020Z,103598.59
2023-02-14T08:45:34.796Z,103597.13
2023-02-14T08:48:12.113Z,103588.81
2023-02-14T08:50:39.647Z,103594.13
2023-02-14T08:53:08.982Z,103596.03
2023-02-14T08:55:36.158Z,103591.06
2023-02-14T08:58:03.560Z,103587.00
2023-02-14T09:00:30.812Z,103588.16
2023-02-14T09:02:57.358Z,103589.19
2023-02-14T09:05:23.959Z,103586.88
2023-02-14T09:07:51.391Z,103581.91
2023-02-14T09:10:21.451Z,103576.09
2023-02-14T09:12:48.210Z,103579.72
2023-02-14T09:15:14.697Z,103579.00
2023-02-14T09:17:41.332Z,103575.72
2023-02-14T09:20:10.047Z,103575.00
2023-02-14T09:22:36.712Z,103576.06
2023-02-14T09:25:04.334Z,103568.53
2023-02-14T09:27:31.054Z,103569.59
2023-02-14T09:29:57.461Z,103571.50
2023-02-14T09:32:25.218Z,103569.06
2023-02-14T09:34:51.931Z,103572.63
2023-02-14T09:37:19.491Z,103572.84
2023-02-14T09:39:46.144Z,103570.41
2023-02-14T09:42:36.820Z,103567.16
2023-02-14T09:45:16.830Z,103563.88
2023-02-14T09:47:56.533Z,103563.22
2023-02-14T09:50:54.744Z,103549.63
2023-02-14T09:53:33.755Z,103558.44
2023-02-14T09:56:17.562Z,103552.63
2023-02-14T09:58:52.424Z,103546.69
2023-02-14T10:01:25.839Z,103551.09
2023-02-14T10:04:17.159Z,103552.19
2023-02-14T10:07:39.240Z,103544.69
2023-02-14T10:10:39.686Z,103548.25
2023-02-14T10:13:16.945Z,103549.22
2023-02-14T10:15:46.867Z,103547.66
2023-02-14T10:18:25.274Z,103544.31
2023-02-14T10:20:56.439Z,103554.72
2023-02-14T10:23:30.852Z,103541.91
2023-02-14T10:26:02.976Z,103546.31
2023-02-14T10:28:37.200Z,103542.94
2023-02-14T10:31:26.927Z,103540.47
2023-02-14T10:34:03.151Z,103539.72
2023-02-14T10:36:39.967Z,103537.22
2023-02-14T10:39:56.090Z,103534.69
2023-02-14T10:42:44.174Z,103536.50
2023-02-14T10:45:22.926Z,103528.78
2023-02-14T10:48:09.073Z,103535.72
2023-02-14T10:50:46.540Z,103528.03
2023-02-14T10:53:30.762Z,103530.66
2023-02-14T10:56:06.378Z,103524.66
2023-02-14T10:58:37.788Z,103522.09
2023-02-14T11:01:13.233Z,103528.16
2023-02-14T11:03:48.679Z,103523.00
2023-02-14T11:06:16.106Z,103519.56
2023-02-14T11:08:42.605Z,103512.69
2023-02-14T11:11:37.751Z,103511.88
2023-02-14T11:14:38.027Z,103511.00
2023-02-14T11:17:35.911Z,103503.22
2023-02-14T11:20:22.545Z,103503.22
2023-02-14T11:22:50.076Z,103494.63
2023-02-14T11:25:28.932Z,103498.06
2023-02-14T11:28:04.840Z,103485.09
2023-02-14T11:30:41.586Z,103490.28
2023-02-14T11:33:22.277Z,103484.22
2023-02-14T11:35:51.976Z,103489.41
2023-02-14T11:38:30.522Z,103482.50
2023-02-14T11:40:59.804Z,103486.81
2023-02-14T11:43:32.970Z,103474.69
2023-02-14T11:46:12.809Z,103475.50
2023-02-14T11:48:39.804Z,103468.56
2023-02-14T11:51:15.780Z,103467.72
2023-02-14T11:53:52.375Z,103458.16
2023-02-14T11:56:21.527Z,103466.78
2023-02-14T11:59:00.045Z,103462.44
2023-02-14T12:01:33.762Z,103450.28
2023-02-14T12:04:22.323Z,103446.78
2023-02-14T12:06:48.992Z,103446.75
2023-02-14T12:09:24.627Z,103435.47
2023-02-14T12:12:04.512Z,103436.31
2023-02-14T12:14:35.778Z,103441.47
2023-02-14T12:17:11.469Z,103433.66
2023-02-14T12:19:55.820Z,103434.50
2023-02-14T12:22:28.523Z,103433.66
2023-02-14T12:25:18.700Z,103434.50
2023-02-14T12:27:56.870Z,103417.97
2023-02-14T12:30:27.016Z,103421.41
2023-02-14T12:32:56.290Z,103413.53
2023-02-14T12:35:50.205Z,103412.66
2023-02-14T12:38:43.969Z,103404.78
2023-02-14T12:41:19.135Z,103400.44
2023-02-14T12:43:50.639Z,103395.16
2023-02-14T12:46:35.638Z,103394.25
2023-02-14T12:49:17.248Z,103388.16
2023-02-14T12:51:58.978Z,103389.88
2023-02-14T12:55:22.861Z,103383.72
2023-02-14T12:57:57.755Z,103381.06
2023-02-14T13:00:46.420Z,103375.91
2023-02-14T13:03:27.987Z,103375.81
2023-02-14T13:06:00.552Z,103373.13
2023-02-14T13:08:47.347Z,103366.00
2023-02-14T13:11:16.652Z,103363.34
2023-02-14T13:14:04.707Z,103355.50
2023-02-14T13:16:43.021Z,103349.44
2023-02-14T13:19:33.806Z,103345.97
2023-02-14T13:22:01.483Z,103337.19
2023-02-14T13:24:33.765Z,103330.19
2023-02-14T13:27:03.301Z,103329.19
2023-02-14T13:29:42.212Z,103334.38
2023-02-14T13:32:14.243Z,103326.56
2023-02-14T13:34:48.533Z,103324.81
2023-02-14T13:37:22.029Z,103328.19
2023-02-14T13:40:06.478Z,103320.28
2023-02-14T13:42:48.567Z,103325.47
2023-02-14T13:45:30.591Z,103322.00
2023-02-14T13:48:19.009Z,103318.50
2023-02-14T13:50:53.248Z,103309.78
2023-02-14T13:53:29.352Z,103305.31
2023-02-14T13:55:56.262Z,103301.84
2023-02-14T13:58:24.329Z,103305.38
2023-02-14T14:00:52.232Z,103300.00
2023-02-14T14:03:27.898Z,103305.22
2023-02-14T14:06:03.745Z,103300.00
2023-02-14T14:08:31.384Z,103300.91
2023-02-14T14:11:00.085Z,103299.16
2023-02-14T14:13:41.603Z,103300.00
2023-02-14T14:16:23.515Z,103290.44
2023-02-14T14:18:52.037Z,103292.13
2023-02-14T14:21:30.598Z,103285.25
2023-02-14T14:24:15.766Z,103283.47
2023-02-14T14:27:18.857Z,103279.09
2023-02-14T14:29:47.986Z,103280.91
2023-02-14T14:32:21.504Z,103277.38
2023-02-14T14:34:53.700Z,103288.75
2023-02-14T14:37:23.388Z,103288.94
2023-02-14T14:39:55.681Z,103283.81
2023-02-14T14:42:24.932Z,103290.84
2023-02-14T14:44:57.278Z,103280.41
2023-02-14T14:47:32.483Z,103284.69
2023-02-14T14:50:07.820Z,103275.16
2023-02-14T14:52:38.292Z,103278.63
2023-02-14T14:55:07.671Z,103281.31
2023-02-14T14:57:36.605Z,103275.25
2023-02-14T15:00:27.325Z,103265.69
2023-02-14T15:03:00.142Z,103271.75
2023-02-14T15:05:38.187Z,103278.78
2023-02-14T15:08:14.728Z,103277.91
2023-02-14T15:10:41.611Z,103277.06
2023-02-14T15:13:31.583Z,103271.88
2023-02-14T15:15:58.792Z,103276.28
2023-02-14T15:18:25.594Z,103267.59
2023-02-14T15:20:52.871Z,103270.25
2023-02-14T15:23:23.495Z,103276.41
2023-02-14T15:25:51.717Z,103273.78
2023-02-14T15:28:29.063Z,103280.69
2023-02-14T15:30:58.272Z,103278.06
2023-02-14T15:33:25.173Z,103276.41
2023-02-14T15:35:52.618Z,103279.03
2023-02-14T15:38:21.879Z,103275.63
2023-02-14T15:40:48.716Z,103273.91
2023-02-14T15:43:17.923Z,103282.56
2023-02-14T15:45:51.076Z,103278.28
2023-02-14T15:48:30.535Z,103272.28
2023-02-14T15:50:59.792Z,103262.81
2023-02-14T15:53:38.693Z,103265.47
2023-02-14T15:56:11.560Z,103266.38
2023-02-14T15:58:40.551Z,103251.69
2023-02-14T16:01:09.226Z,103258.69
2023-02-14T16:03:40.353Z,103259.56
2023-02-14T16:06:07.200Z,103260.53
2023-02-14T16:08:41.186Z,103259.72
2023-02-14T16:11:15.834Z,103257.16
2023-02-14T16:13:45.099Z,103254.59
2023-02-14T16:16:13.787Z,103255.53
2023-02-14T16:18:43.106Z,103252.19
2023-02-14T16:21:19.361Z,103255.72
2023-02-14T16:24:06.435Z,103250.59
2023-02-14T16:26:42.028Z,103251.53
2023-02-14T16:29:10.546Z,103239.47
2023-02-14T16:32:01.223Z,103248.19
2023-02-14T16:34:32.371Z,103247.41
2023-02-14T16:37:06.869Z,103246.63
2023-02-14T16:39:34.582Z,103245.81
2023-02-14T16:42:03.387Z,103251.06
2023-02-14T16:44:29.858Z,103247.69
2023-02-14T16:46:56.287Z,103252.06
2023-02-14T16:49:23.640Z,103246.91
2023-02-14T16:51:51.740Z,103245.16
2023-02-14T16:54:20.397Z,103236.56
2023-02-14T16:56:52.614Z,103247.84
2023-02-14T16:59:19.086Z,103246.16
2023-02-14T17:01:45.970Z,103250.50
2023-02-14T17:04:12.693Z,103239.31
2023-02-14T17:06:43.508Z,103246.25
2023-02-14T17:09:13.514Z,103262.75
2023-02-14T17:11:44.602Z,103256.72
2023-02-14T17:14:14.820Z,103263.66
2023-02-14T17:16:42.503Z,103267.16
2023-02-14T17:19:09.276Z,103267.16
2023-02-14T17:21:35.785Z,103274.97
2023-02-14T17:24:03.439Z,103269.78
2023-02-14T17:26:30.298Z,103279.31
2023-02-14T17:28:56.731Z,103284.53
2023-02-14T17:31:23.246Z,103275.91
2023-02-14T17:33:49.817Z,103283.69
2023-02-14T17:36:16.503Z,103285.41
2023-02-14T17:38:45.639Z,103284.56
2023-02-14T17:41:22.320Z,103281.13
2023-02-14T17:43:49.964Z,103282.88
2023-02-14T17:46:18.703Z,103277.69
2023-02-14T17:48:46.008Z,103281.13
2023-02-14T17:51:13.704Z,103276.81
2023-02-14T17:53:41.720Z,103274.25
2023-02-14T17:56:12.966Z,103275.06
2023-02-14T17:58:39.417Z,103275.09
2023-02-14T18:01:08.388Z,103271.63
2023-02-14T18:03:35.433Z,103269.06
2023-02-14T18:06:02.619Z,103271.63
2023-02-14T18:08:31.149Z,103264.72
2023-02-14T18:10:57.658Z,103265.59
2023-02-14T18:13:25.573Z,103268.16
2023-02-14T18:15:53.439Z,103262.13
2023-02-14T18:18:20.302Z,103265.56
2023-02-14T18:20:54.899Z,103262.13
2023-02-14T18:23:21.855Z,103256.91
2023-02-14T18:25:57.522Z,103260.38
2023-02-14T18:28:25.414Z,103270.72
2023-02-14T18:30:52.725Z,103262.06
2023-02-14T18:33:19.722Z,103263.78
2023-02-14T18:35:46.649Z,103251.69
2023-02-14T18:38:13.988Z,103255.97
2023-02-14T18:40:41.416Z,103256.84
2023-02-14T18:43:07.847Z,103245.59
2023-02-14T18:45:38.498Z,103246.47
2023-02-14T18:48:05.998Z,103246.41
2023-02-14T18:50:35.946Z,103247.25
2023-02-14T18:53:02.733Z,103251.56
2023-02-14T18:55:29.645Z,103245.53
2023-02-14T18:57:56.053Z,103240.34
2023-02-14T19:00:23.199Z,103237.75
2023-02-14T19:02:49.724Z,103231.66
2023-02-14T19:05:16.184Z,103234.25
2023-02-14T19:07:42.599Z,103234.25
2023-02-14T19:10:09.948Z,103234.25
2023-02-14T19:12:36.388Z,103234.22
2023-02-14T19:15:03.566Z,103228.16
2023-02-14T19:17:30.019Z,103229.88
2023-02-14T19:19:57.100Z,103228.13
2023-02-14T19:22:23.730Z,103229.84
2023-02-14T19:24:52.998Z,103230.69
2023-02-14T19:27:19.731Z,103226.34
2023-02-14T19:29:46.125Z,103220.28
2023-02-14T19:32:12.607Z,103221.13
2023-02-14T19:34:39.138Z,103222.00
2023-02-14T19:37:06.431Z,103214.19
2023-02-14T19:39:33.015Z,103218.50
2023-02-14T19:42:00.086Z,103220.19
2023-02-14T19:44:28.724Z,103214.09
2023-02-14T19:46:56.574Z,103206.34
2023-02-14T19:49:23.295Z,103216.66
2023-02-14T19:51:51.470Z,103215.75
2023-02-14T19:54:19.028Z,103213.97
2023-02-14T19:56:46.665Z,103217.38
2023-02-14T19:59:19.715Z,103211.38
2023-02-14T20:01:49.627Z,103211.34
2023-02-14T20:04:28.741Z,103215.63
2023-02-14T20:06:55.704Z,103220.78
2023-02-14T20:09:23.547Z,103215.63
2023-02-14T20:12:01.104Z,103214.72
2023-02-14T20:14:35.937Z,103213.78
2023-02-14T20:17:07.881Z,103208.63
2023-02-14T20:19:35.818Z,103199.16
2023-02-14T20:22:02.578Z,103200.81
2023-02-14T20:24:31.761Z,103205.06
2023-02-14T20:27:00.330Z,103198.16
2023-02-14T20:29:27.699Z,103198.97
2023-02-14T20:31:58.072Z,103198.03
2023-02-14T20:34:24.596Z,103195.41
2023-02-14T20:36:55.289Z,103197.97
2023-02-14T20:39:26.384Z,103193.69
2023-02-14T20:41:53.960Z,103192.78
2023-02-14T20:44:21.431Z,103191.91
2023-02-14T20:46:49.547Z,103193.56
2023-02-14T20:49:16.116Z,103183.25
2023-02-14T20:51:42.855Z,103178.09
2023-02-14T20:54:09.352Z,103184.06
2023-02-14T20:56:35.771Z,103181.38
2023-02-14T20:59:03.290Z,103172.78
2023-02-14T21:01:30.030Z,103171.88
2023-02-14T21:03:56.474Z,103173.56
2023-02-14T21:06:26.680Z,103162.31
2023-02-14T21:08:53.460Z,103170.09
2023-02-14T21:11:22.649Z,103167.47
2023-02-14T21:13:49.216Z,103167.44
2023-02-14T21:16:19.518Z,103160.56
2023-02-14T21:18:49.141Z,103153.66
2023-02-14T21:21:20.048Z,103164.81
2023-02-14T21:23:49.195Z,103169.88
2023-02-14T21:26:16.142Z,103165.56
2023-02-14T21:28:42.554Z,103159.56
2023-02-14T21:31:12.375Z,103163.81
2023-02-14T21:33:39.148Z,103159.47
2023-02-14T21:36:07.147Z,103154.28
2023-02-14T21:38:34.287Z,103147.38
2023-02-14T21:41:04.749Z,103144.81
2023-02-14T21:43:35.031Z,103149.06
2023-02-14T21:46:06.235Z,103138.72
2023-02-14T21:48:51.207Z,103136.94
2023-02-14T21:51:18.684Z,103136.91
2023-02-14T21:53:46.053Z,103140.34
2023-02-14T21:56:17.996Z,103142.03
2023-02-14T21:58:44.563Z,103141.13
2023-02-14T22:01:17.330Z,103139.41
2023-02-14T22:03:44.023Z,103135.88
2023-02-14T22:06:10.500Z,103139.28
2023-02-14T22:08:37.005Z,103136.69
2023-02-14T22:11:08.367Z,103137.50
2023-02-14T22:13:35.287Z,103140.88
2023-02-14T22:16:03.516Z,103133.16
2023-02-14T22:18:30.268Z,103142.53
2023-02-14T22:21:05.206Z,103149.34
2023-02-14T22:23:35.151Z,103149.31
2023-02-14T22:26:15.342Z,103135.59
2023-02-14T22:28:43.953Z,103128.69
2023-02-14T22:31:11.335Z,103128.72
2023-02-14T22:33:38.293Z,103139.88
2023-02-14T22:36:06.015Z,103129.47
2023-02-14T22:38:33.551Z,103131.16
2023-02-14T22:41:13.177Z,103134.53
2023-02-14T22:43:40.284Z,103131.06
2023-02-14T22:46:10.443Z,103133.63
2023-02-14T22:48:37.687Z,103119.84
2023-02-14T22:51:09.474Z,103118.13
2023-02-14T22:53:36.338Z,103121.53
2023-02-14T22:56:14.395Z,103119.75
2023-02-14T22:58:41.343Z,103122.28
2023-02-14T23:01:16.354Z,103117.09
2023-02-14T23:03:43.433Z,103117.97
2023-02-14T23:06:10.691Z,103117.03
2023-02-14T23:08:42.113Z,103108.41
2023-02-14T23:11:16.672Z,103114.38
2023-02-14T23:14:01.915Z,103113.41
2023-02-14T23:16:47.179Z,103123.59
2023-02-14T23:19:41.339Z,103125.25
2023-02-14T23:22:12.426Z,103124.31
2023-02-14T23:24:39.193Z,103125.16
2023-02-14T23:27:06.904Z,103130.28
2023-02-14T23:29:33.584Z,103133.69
2023-02-14T23:32:00.108Z,103133.63
2023-02-14T23:34:28.837Z,103131.03
2023-02-14T23:36:55.495Z,103135.28
2023-02-14T23:39:22.845Z,103135.25
2023-02-14T23:41:49.709Z,103129.22
2023-02-14T23:44:21.332Z,103125.78
2023-02-14T23:46:52.522Z,103126.59
2023-02-14T23:49:19.701Z,103128.31
2023-02-14T23:51:47.590Z,103120.53
2023-02-14T23:54:15.015Z,103124.78
2023-02-14T23:56:42.076Z,103121.34
2023-02-14T23:59:08.909Z,103115.28
